createdAt,value
2023-01-07T00:02:44.728Z,98444.00
2023-01-07T00:08:06.382Z,98440.00
2023-01-07T00:13:27.907Z,98452.00
2023-01-07T00:18:51.061Z,98444.00
2023-01-07T00:24:12.817Z,98442.00
2023-01-07T00:29:34.154Z,98433.00
2023-01-07T00:34:55.373Z,98435.00
2023-01-07T00:40:17.763Z,98440.00
2023-01-07T00:45:39.282Z,98417.00
2023-01-07T00:51:00.585Z,98419.00
2023-01-07T00:56:22.245Z,98421.00
2023-01-07T01:01:43.801Z,98437.00
2023-01-07T01:07:05.135Z,98440.00
2023-01-07T01:12:27.032Z,98440.00
2023-01-07T01:17:50.453Z,98430.00
2023-01-07T01:23:11.867Z,98433.00
2023-01-07T01:28:34.557Z,98425.00
2023-01-07T01:33:57.471Z,98424.00
2023-01-07T01:39:20.582Z,98429.00
2023-01-07T01:44:47.329Z,98424.00
2023-01-07T01:50:34.575Z,98421.00
2023-01-07T01:56:03.197Z,98423.00
2023-01-07T02:01:25.320Z,98413.00
2023-01-07T02:07:01.311Z,98398.00
2023-01-07T02:12:49.327Z,98411.00
2023-01-07T02:18:35.988Z,98418.00
2023-01-07T02:24:33.710Z,98414.00
2023-01-07T02:30:12.922Z,98408.00
2023-01-07T02:36:00.484Z,98409.00
2023-01-07T02:41:53.090Z,98395.00
2023-01-07T02:47:35.869Z,98393.00
2023-01-07T02:52:57.796Z,98391.00
2023-01-07T02:58:48.729Z,98384.00
2023-01-07T03:04:27.315Z,98388.00
2023-01-07T03:09:54.408Z,98379.00
2023-01-07T03:15:22.387Z,98386.00
2023-01-07T03:20:47.452Z,98376.00
2023-01-07T03:26:12.493Z,98370.00
2023-01-07T03:31:35.566Z,98382.00
2023-01-07T03:37:04.061Z,98378.00
2023-01-07T03:42:41.463Z,98381.00
2023-01-07T03:48:16.139Z,98376.00
2023-01-07T03:53:37.613Z,98374.00
2023-01-07T03:58:59.302Z,98377.00
2023-01-07T04:04:21.418Z,98370.00
2023-01-07T04:09:43.282Z,98357.00
2023-01-07T04:15:06.040Z,98361.00
2023-01-07T04:20:27.497Z,98355.00
2023-01-07T04:25:49.714Z,98348.00
2023-01-07T04:31:15.149Z,98345.00
2023-01-07T04:36:37.547Z,98337.00
2023-01-07T04:42:00.097Z,98345.00
2023-01-07T04:47:22.751Z,98341.00
2023-01-07T04:52:44.654Z,98330.00
2023-01-07T04:58:06.737Z,98327.00
2023-01-07T05:03:28.572Z,98327.00
2023-01-07T05:08:50.047Z,98333.00
2023-01-07T05:14:13.330Z,98322.00
2023-01-07T05:19:35.035Z,98324.00
2023-01-07T05:24:56.896Z,98322.00
2023-01-07T05:30:20.926Z,98312.00
2023-01-07T05:35:42.068Z,98304.00
2023-01-07T05:41:04.266Z,98303.00
2023-01-07T05:46:28.509Z,98292.00
2023-01-07T05:51:49.945Z,98307.00
2023-01-07T05:57:11.525Z,98300.00
2023-01-07T06:02:33.189Z,98306.00
2023-01-07T06:07:54.744Z,98306.00
2023-01-07T06:13:16.441Z,98301.00
2023-01-07T06:18:38.042Z,98304.00
2023-01-07T06:23:59.660Z,98300.00
2023-01-07T06:29:21.171Z,98304.00
2023-01-07T06:34:42.729Z,98284.00
2023-01-07T06:40:05.179Z,98278.00
2023-01-07T06:45:26.680Z,98290.00
2023-01-07T06:50:48.427Z,98298.00
2023-01-07T06:56:10.013Z,98288.00
2023-01-07T07:01:31.828Z,98283.00
2023-01-07T07:06:53.209Z,98278.00
2023-01-07T07:12:14.842Z,98293.00
2023-01-07T07:17:36.483Z,98289.00
2023-01-07T07:22:57.738Z,98294.00
2023-01-07T07:28:19.106Z,98304.00
2023-01-07T07:33:40.711Z,98302.00
2023-01-07T07:39:02.222Z,98303.00
2023-01-07T07:44:23.814Z,98300.00
2023-01-07T07:49:45.216Z,98302.00
2023-01-07T07:55:20.664Z,98308.00
2023-01-07T08:00:48.075Z,98301.00
2023-01-07T08:06:09.936Z,98304.00
2023-01-07T08:11:31.426Z,98305.00
2023-01-07T08:16:52.931Z,98305.00
2023-01-07T08:22:14.554Z,98311.00
2023-01-07T08:27:35.662Z,98303.00
2023-01-07T08:32:57.776Z,98285.00
2023-01-07T08:38:19.452Z,98289.00
2023-01-07T08:43:42.001Z,98281.00
2023-01-07T08:49:03.757Z,98275.00
2023-01-07T08:54:25.262Z,98279.00
2023-01-07T08:59:46.645Z,98273.00
2023-01-07T09:05:08.672Z,98284.00
2023-01-07T09:10:32.579Z,98286.00
2023-01-07T09:15:54.233Z,98283.00
2023-01-07T09:21:16.153Z,98281.00
2023-01-07T09:26:37.477Z,98267.00
2023-01-07T09:31:59.191Z,98262.00
2023-01-07T09:37:20.795Z,98270.00
2023-01-07T09:43:11.370Z,98264.00
2023-01-07T09:48:39.047Z,98257.00
2023-01-07T09:54:03.233Z,98263.00
2023-01-07T09:59:24.964Z,98252.00
2023-01-07T10:04:46.512Z,98255.00
2023-01-07T10:10:22.715Z,98249.00
2023-01-07T10:16:17.136Z,98231.00
2023-01-07T10:21:55.089Z,98242.00
2023-01-07T10:27:18.929Z,98228.00
2023-01-07T10:32:41.784Z,98223.00
2023-01-07T10:38:05.777Z,98215.00
2023-01-07T10:43:39.575Z,98212.00
2023-01-07T10:49:34.762Z,98213.00
2023-01-07T10:55:15.758Z,98198.00
2023-01-07T11:00:38.810Z,98186.00
2023-01-07T11:06:06.221Z,98174.00
2023-01-07T11:11:27.664Z,98172.00
2023-01-07T11:17:18.875Z,98154.00
2023-01-07T11:22:40.751Z,98142.00
2023-01-07T11:28:04.421Z,98138.00
2023-01-07T11:34:02.840Z,98136.00
2023-01-07T11:39:29.780Z,98124.00
2023-01-07T11:45:12.602Z,98125.00
2023-01-07T11:50:44.704Z,98114.00
2023-01-07T11:56:20.104Z,98094.00
2023-01-07T12:01:47.705Z,98094.00
2023-01-07T12:07:15.530Z,98097.00
2023-01-07T12:12:42.818Z,98088.00
2023-01-07T12:18:37.589Z,98083.00
2023-01-07T12:24:20.235Z,98068.00
2023-01-07T12:30:27.732Z,98061.00
2023-01-07T12:35:49.379Z,98053.00
2023-01-07T12:41:24.272Z,98041.00
2023-01-07T12:47:31.154Z,98027.00
2023-01-07T12:52:53.055Z,98024.00
2023-01-07T12:58:21.578Z,98022.00
2023-01-07T13:04:14.047Z,98013.00
2023-01-07T13:10:05.916Z,97996.00
2023-01-07T13:15:33.936Z,97988.00
2023-01-07T13:21:11.132Z,97985.00
2023-01-07T13:26:56.028Z,97985.00
2023-01-07T13:32:34.187Z,97977.00
2023-01-07T13:38:13.543Z,97963.00
2023-01-07T13:44:06.544Z,97959.00
2023-01-07T13:49:33.460Z,97952.00
2023-01-07T13:54:57.063Z,97946.00
2023-01-07T14:00:40.415Z,97942.00
2023-01-07T14:06:20.332Z,97932.00
2023-01-07T14:12:05.918Z,97930.00
2023-01-07T14:17:58.957Z,97927.00
2023-01-07T14:23:28.099Z,97917.00
2023-01-07T14:29:01.427Z,97918.00
2023-01-07T14:34:26.938Z,97922.00
2023-01-07T14:39:48.552Z,97916.00
2023-01-07T14:45:36.333Z,97919.00
2023-01-07T14:51:19.457Z,97906.00
2023-01-07T14:56:50.309Z,97907.00
2023-01-07T15:02:45.471Z,97905.00
2023-01-07T15:08:29.436Z,97907.00
2023-01-07T15:14:19.713Z,97902.00
2023-01-07T15:19:42.688Z,97897.00
2023-01-07T15:25:19.180Z,97887.00
2023-01-07T15:30:51.570Z,97882.00
2023-01-07T15:36:15.829Z,97890.00
2023-01-07T15:41:39.164Z,97881.00
2023-01-07T15:47:00.890Z,97885.00
2023-01-07T15:52:26.430Z,97880.00
2023-01-07T15:57:49.410Z,97863.00
2023-01-07T16:03:18.715Z,97859.00
2023-01-07T16:08:44.133Z,97876.00
2023-01-07T16:14:16.914Z,97879.00
2023-01-07T16:19:38.274Z,97864.00
2023-01-07T16:25:00.469Z,97853.00
2023-01-07T16:30:22.262Z,97851.00
2023-01-07T16:35:46.824Z,97854.00
2023-01-07T16:41:12.321Z,97850.00
2023-01-07T16:46:41.380Z,97853.00
2023-01-07T16:52:07.234Z,97856.00
2023-01-07T16:57:41.794Z,97860.00
2023-01-07T17:03:03.275Z,97844.00
2023-01-07T17:08:25.150Z,97847.00
2023-01-07T17:13:46.690Z,97848.00
2023-01-07T17:19:41.514Z,97833.00
2023-01-07T17:25:10.120Z,97842.00
2023-01-07T17:30:36.698Z,97841.00
2023-01-07T17:35:57.801Z,97841.00
2023-01-07T17:41:39.948Z,97841.00
2023-01-07T17:47:02.753Z,97839.00
2023-01-07T17:52:24.447Z,97820.00
2023-01-07T17:57:45.757Z,97808.00
2023-01-07T18:03:07.315Z,97813.00
2023-01-07T18:08:28.700Z,97819.00
2023-01-07T18:13:49.905Z,97803.00
2023-01-07T18:19:15.480Z,97788.00
2023-01-07T18:24:36.745Z,97767.00
2023-01-07T18:29:58.386Z,97767.00
2023-01-07T18:35:19.812Z,97760.00
2023-01-07T18:40:42.350Z,97758.00
2023-01-07T18:46:08.601Z,97765.00
2023-01-07T18:51:30.223Z,97750.00
2023-01-07T18:56:51.830Z,97768.00
2023-01-07T19:02:20.195Z,97754.00
2023-01-07T19:07:41.916Z,97749.00
2023-01-07T19:13:03.570Z,97754.00
2023-01-07T19:18:25.213Z,97744.00
2023-01-07T19:23:48.108Z,97741.00
2023-01-07T19:29:11.756Z,97731.00
2023-01-07T19:34:34.721Z,97721.00
2023-01-07T19:39:56.200Z,97719.00
2023-01-07T19:45:17.852Z,97712.00
2023-01-07T19:50:39.459Z,97705.00
2023-01-07T19:56:08.745Z,97689.00
2023-01-07T20:01:30.587Z,97695.00
2023-01-07T20:06:52.297Z,97681.00
2023-01-07T20:12:13.859Z,97676.00
2023-01-07T20:17:35.561Z,97666.00
2023-01-07T20:22:57.165Z,97660.00
2023-01-07T20:28:19.242Z,97656.00
2023-01-07T20:33:41.705Z,97652.00
2023-01-07T20:39:05.987Z,97662.00
2023-01-07T20:44:27.312Z,97651.00
2023-01-07T20:49:48.688Z,97651.00
2023-01-07T20:55:10.180Z,97647.00
2023-01-07T21:00:31.858Z,97639.00
2023-01-07T21:05:57.230Z,97639.00
2023-01-07T21:11:23.859Z,97626.00
2023-01-07T21:16:45.364Z,97632.00
2023-01-07T21:22:06.878Z,97615.00
2023-01-07T21:27:28.467Z,97607.00
2023-01-07T21:32:50.148Z,97607.00
2023-01-07T21:38:11.802Z,97613.00
2023-01-07T21:43:33.400Z,97605.00
2023-01-07T21:48:55.928Z,97593.00
2023-01-07T21:54:17.697Z,97604.00
2023-01-07T21:59:39.342Z,97578.00
2023-01-07T22:05:01.014Z,97581.00
2023-01-07T22:10:22.663Z,97579.00
2023-01-07T22:15:44.312Z,97575.00
2023-01-07T22:21:05.940Z,97578.00
2023-01-07T22:26:27.486Z,97588.00
2023-01-07T22:31:51.159Z,97581.00
2023-01-07T22:37:16.578Z,97589.00
2023-01-07T22:42:56.735Z,97575.00
2023-01-07T22:48:24.053Z,97589.00
2023-01-07T22:53:45.584Z,97595.00
2023-01-07T22:59:06.696Z,97583.00
2023-01-07T23:04:28.469Z,97555.00
2023-01-07T23:09:51.597Z,97556.00
2023-01-07T23:15:13.203Z,97553.00
2023-01-07T23:20:42.301Z,97560.00
2023-01-07T23:26:03.662Z,97552.00
2023-01-07T23:31:25.194Z,97548.00
2023-01-07T23:36:46.775Z,97538.00
2023-01-07T23:42:08.431Z,97541.00
2023-01-07T23:47:29.951Z,97542.00
2023-01-07T23:52:51.581Z,97533.00
2023-01-07T23:58:13.061Z,97532.00
